Time;durP1;ratioP1;P1;durP2;ratioP2;P2;SDS_P1;SDS_P2;PMS_P1;PMS_P2;Temp;Humidity;BMP_temperature;BMP_pressure;BME280_temperature;BME280_humidity;BME280_pressure;Samples;Min_cycle;Max_cycle;Signal;HPM_P1;HPM_P2
2023/05/27 00:01:12;;;;;;;11.43;3.33;;;;;;;;;;4991456;28;20538;-70
2023/05/27 00:03:38;;;;;;;9.17;3.50;;;;;;;;;;4991756;28;20676;-70
2023/05/27 00:06:03;;;;;;;12.13;3.63;;;;;;;;;;4991405;28;20199;-70
2023/05/27 00:08:28;;;;;;;8.70;4.07;;;;;;;;;;4989833;28;20596;-70
2023/05/27 00:10:53;;;;;;;12.13;3.53;;;;;;;;;;4991596;28;20704;-70
2023/05/27 00:13:19;;;;;;;14.90;3.87;;;;;;;;;;4984121;28;20172;-70
2023/05/27 00:15:44;;;;;;;14.10;3.53;;;;;;;;;;4982495;28;20195;-70
2023/05/27 00:18:10;;;;;;;11.87;4.17;;;;;;;;;;4990116;28;20180;-71
2023/05/27 00:20:35;;;;;;;10.93;2.93;;;;;;;;;;4980399;28;20239;-70
2023/05/27 00:23:00;;;;;;;12.53;4.30;;;;;;;;;;4989913;28;20234;-70
2023/05/27 00:27:57;;;;;;;12.30;3.37;;;;;;;;;;5000469;28;20229;-75
2023/05/27 00:30:22;;;;;;;8.87;3.37;;;;;;;;;;5004085;28;20179;-75
2023/05/27 00:32:47;;;;;;;8.07;3.57;;;;;;;;;;5006523;28;20203;-75
2023/05/27 00:35:13;;;;;;;9.97;3.47;;;;;;;;;;5004537;28;20689;-76
2023/05/27 00:37:38;;;;;;;11.40;3.70;;;;;;;;;;4995853;28;20199;-75
2023/05/27 00:40:04;;;;;;;7.17;2.87;;;;;;;;;;4984302;28;20176;-75
2023/05/27 00:42:30;;;;;;;14.53;3.43;;;;;;;;;;4992791;28;20184;-75
2023/05/27 00:44:55;;;;;;;11.23;3.17;;;;;;;;;;4986933;28;20634;-75
2023/05/27 00:47:20;;;;;;;10.40;3.03;;;;;;;;;;4995867;28;20211;-75
2023/05/27 00:49:45;;;;;;;11.50;3.23;;;;;;;;;;4995354;28;20668;-76
2023/05/27 00:52:12;;;;;;;7.63;3.27;;;;;;;;;;4996574;28;20191;-76
2023/05/27 00:54:38;;;;;;;12.67;3.07;;;;;;;;;;4997227;28;20175;-76
2023/05/27 00:57:04;;;;;;;15.33;3.53;;;;;;;;;;4996327;28;20207;-75
2023/05/27 00:59:30;;;;;;;11.43;3.37;;;;;;;;;;4993850;28;20274;-75
2023/05/27 01:01:55;;;;;;;13.43;3.53;;;;;;;;;;4995131;28;20208;-76
2023/05/27 01:04:20;;;;;;;19.23;4.57;;;;;;;;;;4997128;28;20191;-76
2023/05/27 01:06:47;;;;;;;7.33;2.80;;;;;;;;;;4998061;28;20200;-76
2023/05/27 01:09:20;;;;;;;8.73;3.50;;;;;;;;;;4996755;28;20183;-76
2023/05/27 01:11:51;;;;;;;9.13;3.30;;;;;;;;;;4993925;28;20187;-75
2023/05/27 01:14:17;;;;;;;10.57;2.93;;;;;;;;;;4987711;28;20255;-75
2023/05/27 01:16:46;;;;;;;11.57;3.10;;;;;;;;;;4994168;28;20199;-76
2023/05/27 01:19:18;;;;;;;15.07;3.23;;;;;;;;;;4996685;28;20544;-75
2023/05/27 01:21:46;;;;;;;10.73;3.10;;;;;;;;;;4999470;28;20199;-76
2023/05/27 01:24:11;;;;;;;11.17;3.57;;;;;;;;;;4994551;28;20420;-76
2023/05/27 01:26:37;;;;;;;11.33;3.37;;;;;;;;;;4993611;28;20204;-75
2023/05/27 01:29:02;;;;;;;11.67;3.47;;;;;;;;;;4998258;28;20269;-75
2023/05/27 01:31:33;;;;;;;10.40;2.87;;;;;;;;;;4994036;28;20650;-75
2023/05/27 01:34:00;;;;;;;9.13;4.27;;;;;;;;;;4997072;28;20188;-76
2023/05/27 01:36:28;;;;;;;5.20;3.03;;;;;;;;;;4998203;28;20254;-75
2023/05/27 01:38:54;;;;;;;7.07;2.67;;;;;;;;;;5001518;28;20756;-76
2023/05/27 01:41:21;;;;;;;9.70;3.73;;;;;;;;;;5000227;28;20540;-76
2023/05/27 01:43:46;;;;;;;7.13;2.63;;;;;;;;;;4995811;28;20179;-76
2023/05/27 01:46:11;;;;;;;7.43;2.67;;;;;;;;;;4986194;28;20212;-76
2023/05/27 01:48:37;;;;;;;10.27;3.10;;;;;;;;;;4995083;28;20239;-76
2023/05/27 01:51:02;;;;;;;11.57;3.30;;;;;;;;;;4998066;28;20668;-75
2023/05/27 01:53:27;;;;;;;8.53;3.13;;;;;;;;;;4995435;28;20183;-75
2023/05/27 01:55:52;;;;;;;19.53;2.87;;;;;;;;;;4994597;28;20692;-76
2023/05/27 01:58:17;;;;;;;10.40;2.50;;;;;;;;;;4993028;28;20223;-76
2023/05/27 02:00:43;;;;;;;8.17;3.53;;;;;;;;;;4987115;28;20270;-76
2023/05/27 02:03:08;;;;;;;9.87;3.87;;;;;;;;;;4990462;28;20312;-76
2023/05/27 02:05:35;;;;;;;9.17;2.93;;;;;;;;;;4993158;28;20226;-76
2023/05/27 02:08:00;;;;;;;13.20;3.53;;;;;;;;;;5006078;28;20652;-76
2023/05/27 02:10:26;;;;;;;12.13;3.20;;;;;;;;;;4996221;28;20258;-77
2023/05/27 02:12:52;;;;;;;11.90;3.13;;;;;;;;;;4999270;28;20435;-76
2023/05/27 02:15:17;;;;;;;9.03;3.10;;;;;;;;;;4995062;28;20646;-76
2023/05/27 02:17:45;;;;;;;9.17;3.43;;;;;;;;;;4994937;28;20211;-75
2023/05/27 02:20:11;;;;;;;9.27;2.97;;;;;;;;;;4997600;28;20649;-75
2023/05/27 02:22:36;;;;;;;6.43;2.50;;;;;;;;;;4995401;28;20172;-75
2023/05/27 02:25:01;;;;;;;7.50;3.20;;;;;;;;;;4988493;28;20554;-76
2023/05/27 02:27:26;;;;;;;11.27;4.10;;;;;;;;;;4993320;28;20581;-75
2023/05/27 02:29:51;;;;;;;7.97;2.90;;;;;;;;;;4991359;28;20188;-76
2023/05/27 02:32:17;;;;;;;9.30;4.20;;;;;;;;;;4991225;28;20595;-75
2023/05/27 02:34:43;;;;;;;7.73;3.20;;;;;;;;;;4993159;28;20206;-75
2023/05/27 02:37:08;;;;;;;12.73;3.43;;;;;;;;;;4995585;28;20211;-75
2023/05/27 02:39:34;;;;;;;10.60;3.40;;;;;;;;;;4993229;28;20234;-75
2023/05/27 02:41:59;;;;;;;11.33;3.03;;;;;;;;;;4991595;28;20188;-75
2023/05/27 02:44:24;;;;;;;12.03;2.87;;;;;;;;;;4989504;28;20605;-75
2023/05/27 02:46:50;;;;;;;9.93;3.53;;;;;;;;;;4983491;28;20681;-75
2023/05/27 02:49:16;;;;;;;12.00;4.67;;;;;;;;;;4993226;28;20175;-75
2023/05/27 02:51:42;;;;;;;11.07;3.50;;;;;;;;;;4993093;28;20194;-76
2023/05/27 02:54:07;;;;;;;10.33;4.63;;;;;;;;;;4992961;28;20263;-76
2023/05/27 02:56:32;;;;;;;13.73;4.10;;;;;;;;;;4993223;28;20581;-76
2023/05/27 02:58:57;;;;;;;12.50;3.30;;;;;;;;;;5002269;28;20634;-75
2023/05/27 03:01:23;;;;;;;9.33;3.50;;;;;;;;;;4993042;28;20182;-76
2023/05/27 03:03:48;;;;;;;12.73;3.43;;;;;;;;;;4988760;28;20168;-75
2023/05/27 03:06:13;;;;;;;11.40;3.57;;;;;;;;;;4988702;28;20716;-76
2023/05/27 03:08:38;;;;;;;11.47;3.20;;;;;;;;;;4992437;28;20180;-76
2023/05/27 03:11:03;;;;;;;9.43;3.23;;;;;;;;;;4993606;28;20210;-76
2023/05/27 03:13:29;;;;;;;7.17;3.20;;;;;;;;;;4992131;28;20278;-76
2023/05/27 03:15:54;;;;;;;12.53;3.97;;;;;;;;;;4994708;28;20203;-76
2023/05/27 03:18:19;;;;;;;9.50;4.00;;;;;;;;;;4994532;28;20253;-76
2023/05/27 03:20:45;;;;;;;12.87;3.90;;;;;;;;;;4994389;28;20207;-75
2023/05/27 03:23:10;;;;;;;11.30;4.17;;;;;;;;;;4994617;28;20246;-76
2023/05/27 03:25:35;;;;;;;12.90;3.43;;;;;;;;;;4990715;28;20206;-76
2023/05/27 03:28:00;;;;;;;9.27;3.40;;;;;;;;;;4996735;28;20668;-76
2023/05/27 03:30:26;;;;;;;13.03;3.33;;;;;;;;;;4990808;28;20179;-76
2023/05/27 03:32:51;;;;;;;13.40;3.40;;;;;;;;;;4988822;28;20187;-76
2023/05/27 03:35:16;;;;;;;12.10;3.67;;;;;;;;;;4993074;28;20190;-76
2023/05/27 03:37:42;;;;;;;11.60;3.77;;;;;;;;;;4991400;28;20222;-76
2023/05/27 03:40:08;;;;;;;15.33;3.20;;;;;;;;;;5002277;28;20179;-76
2023/05/27 03:42:34;;;;;;;9.03;3.10;;;;;;;;;;4992734;28;20180;-76
2023/05/27 03:44:59;;;;;;;15.03;3.83;;;;;;;;;;4992353;28;20262;-76
2023/05/27 03:47:25;;;;;;;6.70;3.37;;;;;;;;;;4983124;28;20200;-76
2023/05/27 03:49:50;;;;;;;10.40;3.47;;;;;;;;;;4988518;28;20183;-76
2023/05/27 03:52:15;;;;;;;10.83;3.40;;;;;;;;;;4993383;28;20539;-75
2023/05/27 03:54:41;;;;;;;11.20;4.07;;;;;;;;;;4992736;28;20646;-76
2023/05/27 03:57:07;;;;;;;11.27;3.23;;;;;;;;;;4990237;28;20204;-76
2023/05/27 03:59:32;;;;;;;13.40;3.93;;;;;;;;;;4990159;28;20186;-76
2023/05/27 04:01:57;;;;;;;8.53;2.93;;;;;;;;;;4996844;28;20677;-75
2023/05/27 04:04:23;;;;;;;9.83;3.53;;;;;;;;;;4991680;28;20187;-76
2023/05/27 04:06:48;;;;;;;11.90;4.17;;;;;;;;;;4992625;28;20191;-76
2023/05/27 04:09:13;;;;;;;11.17;2.90;;;;;;;;;;4994353;28;20219;-76
2023/05/27 04:11:38;;;;;;;7.33;3.90;;;;;;;;;;4990924;28;20190;-76
2023/05/27 04:14:06;;;;;;;13.73;3.97;;;;;;;;;;4990770;28;20175;-76
2023/05/27 04:16:33;;;;;;;13.63;4.43;;;;;;;;;;4994529;28;20199;-76
2023/05/27 04:18:59;;;;;;;10.70;3.37;;;;;;;;;;4994982;28;20238;-76
2023/05/27 04:21:24;;;;;;;10.63;3.40;;;;;;;;;;4996077;28;20585;-76
2023/05/27 04:23:49;;;;;;;7.77;3.37;;;;;;;;;;4991595;28;20172;-76
2023/05/27 04:26:14;;;;;;;12.77;3.43;;;;;;;;;;4994694;28;20289;-76
2023/05/27 04:28:40;;;;;;;6.87;3.40;;;;;;;;;;4993518;28;20216;-76
2023/05/27 04:31:06;;;;;;;10.67;2.90;;;;;;;;;;4987841;28;20200;-76
2023/05/27 04:33:31;;;;;;;11.40;3.17;;;;;;;;;;4992654;28;20192;-76
2023/05/27 04:35:56;;;;;;;10.30;3.57;;;;;;;;;;4990792;28;20288;-76
2023/05/27 04:38:22;;;;;;;8.50;3.53;;;;;;;;;;4998110;28;20248;-76
2023/05/27 04:40:52;;;;;;;13.10;3.07;;;;;;;;;;4992329;28;20179;-77
2023/05/27 04:43:17;;;;;;;11.93;3.87;;;;;;;;;;4993665;28;20665;-77
2023/05/27 04:45:43;;;;;;;9.53;2.87;;;;;;;;;;4992832;28;20195;-76
2023/05/27 04:48:09;;;;;;;7.33;3.43;;;;;;;;;;4989276;28;20199;-77
2023/05/27 04:50:34;;;;;;;10.13;2.63;;;;;;;;;;4992261;28;20638;-76
2023/05/27 04:53:00;;;;;;;14.00;4.07;;;;;;;;;;4992325;28;20180;-76
2023/05/27 04:55:26;;;;;;;9.63;3.47;;;;;;;;;;4988043;28;20219;-77
2023/05/27 04:57:52;;;;;;;6.90;3.00;;;;;;;;;;4989858;28;20254;-76
2023/05/27 05:00:35;;;;;;;9.07;3.27;;;;;;;;;;4994092;28;21765;-76
2023/05/27 05:03:01;;;;;;;12.53;3.67;;;;;;;;;;4992768;28;20184;-76
2023/05/27 05:05:26;;;;;;;10.90;3.30;;;;;;;;;;4989669;28;20175;-76
2023/05/27 05:07:51;;;;;;;19.30;3.43;;;;;;;;;;4986126;28;20708;-76
2023/05/27 05:10:16;;;;;;;13.80;3.27;;;;;;;;;;4992641;28;20616;-77
2023/05/27 05:12:42;;;;;;;11.27;3.80;;;;;;;;;;4993556;28;20278;-77
2023/05/27 05:15:08;;;;;;;11.93;3.57;;;;;;;;;;4989404;28;20666;-77
2023/05/27 05:17:33;;;;;;;17.03;3.50;;;;;;;;;;4995990;28;20207;-77
2023/05/27 05:19:58;;;;;;;12.33;3.10;;;;;;;;;;4998197;28;20180;-77
2023/05/27 05:22:23;;;;;;;16.93;3.27;;;;;;;;;;4994054;28;20761;-77
2023/05/27 05:24:49;;;;;;;13.77;4.23;;;;;;;;;;4991484;28;20179;-76
2023/05/27 05:27:15;;;;;;;9.90;3.80;;;;;;;;;;4989498;28;20262;-75
2023/05/27 05:29:40;;;;;;;11.20;3.07;;;;;;;;;;4992367;28;20203;-76
2023/05/27 05:32:06;;;;;;;8.40;3.30;;;;;;;;;;4991057;28;20230;-76
2023/05/27 05:34:31;;;;;;;9.60;2.90;;;;;;;;;;4994256;28;20257;-77
2023/05/27 05:36:56;;;;;;;11.13;3.00;;;;;;;;;;4996048;28;20681;-77
2023/05/27 05:39:21;;;;;;;5.57;3.07;;;;;;;;;;4999493;28;20186;-77
2023/05/27 05:41:47;;;;;;;8.43;3.00;;;;;;;;;;4996203;28;20175;-77
2023/05/27 05:44:12;;;;;;;16.03;3.53;;;;;;;;;;4997645;28;20211;-77
2023/05/27 05:46:38;;;;;;;13.63;3.67;;;;;;;;;;4993632;28;20227;-77
2023/05/27 05:49:03;;;;;;;9.47;3.13;;;;;;;;;;4987083;28;20194;-76
2023/05/27 05:51:28;;;;;;;10.30;2.43;;;;;;;;;;4991015;28;20696;-77
2023/05/27 05:53:54;;;;;;;16.33;3.43;;;;;;;;;;4997320;28;20236;-76
2023/05/27 05:56:19;;;;;;;8.57;4.17;;;;;;;;;;4999063;28;20188;-77
2023/05/27 05:58:45;;;;;;;9.13;2.77;;;;;;;;;;4994126;28;20203;-77
2023/05/27 06:01:10;;;;;;;16.23;3.77;;;;;;;;;;4987014;28;20177;-77
2023/05/27 06:03:36;;;;;;;7.70;2.67;;;;;;;;;;4989653;28;20185;-77
2023/05/27 06:06:02;;;;;;;11.47;3.30;;;;;;;;;;4995249;28;20206;-77
2023/05/27 06:08:27;;;;;;;10.37;3.53;;;;;;;;;;4993756;28;20219;-77
2023/05/27 06:10:52;;;;;;;14.73;3.47;;;;;;;;;;4995282;28;20230;-77
2023/05/27 06:13:18;;;;;;;11.67;3.30;;;;;;;;;;4994827;28;20180;-77
2023/05/27 06:15:43;;;;;;;8.80;2.67;;;;;;;;;;4994544;28;20206;-77
2023/05/27 06:18:08;;;;;;;9.82;3.05;;;;;;;;;;4996331;28;20207;-77
2023/05/27 06:20:33;;;;;;;11.05;3.30;;;;;;;;;;4991733;28;20614;-76
2023/05/27 06:22:59;;;;;;;7.20;2.47;;;;;;;;;;4993978;28;20176;-76
2023/05/27 06:25:24;;;;;;;9.83;3.37;;;;;;;;;;4992395;28;20678;-77
2023/05/27 06:27:49;;;;;;;14.07;3.58;;;;;;;;;;4998637;22;20736;-71
2023/05/27 06:30:14;;;;;;;18.92;4.03;;;;;;;;;;4982939;28;20222;-71
2023/05/27 06:32:40;;;;;;;7.72;3.17;;;;;;;;;;4988597;28;20188;-71
2023/05/27 06:35:05;;;;;;;10.90;3.72;;;;;;;;;;4987789;28;20220;-71
2023/05/27 06:37:30;;;;;;;11.90;3.72;;;;;;;;;;4991815;28;20218;-71
2023/05/27 06:39:55;;;;;;;10.85;3.47;;;;;;;;;;4992699;28;20179;-71
2023/05/27 06:42:22;;;;;;;8.82;2.67;;;;;;;;;;4993145;28;20187;-71
2023/05/27 06:44:47;;;;;;;16.38;4.35;;;;;;;;;;4991809;28;20174;-71
2023/05/27 06:47:13;;;;;;;10.68;3.75;;;;;;;;;;4991004;28;20195;-71
2023/05/27 06:49:38;;;;;;;6.30;3.22;;;;;;;;;;4990469;28;20176;-71
2023/05/27 06:52:03;;;;;;;14.45;3.67;;;;;;;;;;4991412;28;20660;-71
2023/05/27 06:54:29;;;;;;;13.70;3.83;;;;;;;;;;4977771;28;20202;-71
2023/05/27 06:56:54;;;;;;;7.03;2.90;;;;;;;;;;4992313;28;20238;-72
2023/05/27 06:59:19;;;;;;;6.88;2.63;;;;;;;;;;4990043;28;20203;-71
2023/05/27 07:01:44;;;;;;;14.50;3.17;;;;;;;;;;4990542;28;20176;-71
2023/05/27 07:04:09;;;;;;;10.50;3.38;;;;;;;;;;4990440;28;20225;-71
2023/05/27 07:06:36;;;;;;;17.00;3.30;;;;;;;;;;4987524;28;20363;-71
2023/05/27 07:09:02;;;;;;;12.50;3.30;;;;;;;;;;4988450;28;20234;-71
2023/05/27 07:11:27;;;;;;;12.45;5.03;;;;;;;;;;4992727;28;20682;-71
2023/05/27 07:13:52;;;;;;;11.20;3.20;;;;;;;;;;4992122;28;20550;-71
2023/05/27 07:16:17;;;;;;;9.18;4.07;;;;;;;;;;4988970;28;20301;-72
2023/05/27 07:18:43;;;;;;;13.20;3.50;;;;;;;;;;4987546;28;20710;-71
2023/05/27 07:21:08;;;;;;;10.27;3.67;;;;;;;;;;4991333;28;20176;-72
2023/05/27 07:23:33;;;;;;;8.85;3.28;;;;;;;;;;4991787;28;20203;-69
2023/05/27 07:25:58;;;;;;;14.48;3.78;;;;;;;;;;4992181;28;20255;-70
2023/05/27 07:28:23;;;;;;;15.05;3.70;;;;;;;;;;4989997;28;20192;-70
2023/05/27 07:30:49;;;;;;;13.20;4.00;;;;;;;;;;4988710;28;20186;-70
2023/05/27 07:33:14;;;;;;;11.25;4.10;;;;;;;;;;4992147;28;20180;-70
2023/05/27 07:35:40;;;;;;;17.58;3.60;;;;;;;;;;4991678;28;20186;-70
2023/05/27 07:38:05;;;;;;;13.75;3.20;;;;;;;;;;4987450;28;20203;-70
2023/05/27 07:40:30;;;;;;;10.43;3.35;;;;;;;;;;4991245;28;20179;-70
2023/05/27 07:42:56;;;;;;;10.57;3.60;;;;;;;;;;4991727;28;20531;-70
2023/05/27 07:45:22;;;;;;;12.38;4.03;;;;;;;;;;4991655;28;20200;-71
2023/05/27 07:47:47;;;;;;;8.73;3.42;;;;;;;;;;4991625;28;20207;-70
2023/05/27 07:50:13;;;;;;;19.85;4.95;;;;;;;;;;4991455;28;20186;-69
2023/05/27 07:52:39;;;;;;;10.55;3.38;;;;;;;;;;4986682;28;20180;-70
2023/05/27 07:55:05;;;;;;;10.27;3.08;;;;;;;;;;4979944;28;20234;-70
2023/05/27 07:57:31;;;;;;;10.50;4.38;;;;;;;;;;4980185;28;20216;-70
2023/05/27 07:59:56;;;;;;;14.30;4.50;;;;;;;;;;4989839;28;20637;-70
2023/05/27 08:02:22;;;;;;;10.85;4.35;;;;;;;;;;4988816;28;20266;-70
2023/05/27 08:04:47;;;;;;;9.70;4.47;;;;;;;;;;4990541;28;20206;-70
2023/05/27 08:07:12;;;;;;;12.40;4.13;;;;;;;;;;4991359;28;20234;-70
2023/05/27 08:09:37;;;;;;;15.48;3.38;;;;;;;;;;4987614;28;20180;-70
2023/05/27 08:12:03;;;;;;;8.10;3.63;;;;;;;;;;4986156;28;20176;-70
2023/05/27 08:14:28;;;;;;;10.45;3.78;;;;;;;;;;5001394;28;20781;-70
2023/05/27 08:16:54;;;;;;;12.02;4.13;;;;;;;;;;4991835;28;20270;-70
2023/05/27 08:19:19;;;;;;;9.63;3.30;;;;;;;;;;4991335;28;20615;-71
2023/05/27 08:21:44;;;;;;;11.73;3.30;;;;;;;;;;4993471;28;20202;-71
2023/05/27 08:24:09;;;;;;;8.57;3.22;;;;;;;;;;4991702;28;20212;-72
2023/05/27 08:26:35;;;;;;;12.27;3.90;;;;;;;;;;4990213;28;20287;-71
2023/05/27 08:29:01;;;;;;;8.50;3.40;;;;;;;;;;4989411;28;20187;-71
2023/05/27 08:31:26;;;;;;;11.30;3.60;;;;;;;;;;4986760;28;20322;-71
2023/05/27 08:33:51;;;;;;;14.63;3.55;;;;;;;;;;4986480;28;20270;-71
2023/05/27 08:36:19;;;;;;;10.52;3.63;;;;;;;;;;4990525;28;20700;-71
2023/05/27 08:38:44;;;;;;;8.63;4.03;;;;;;;;;;4989793;28;20220;-71
2023/05/27 08:41:09;;;;;;;12.27;3.25;;;;;;;;;;4991384;28;20176;-71
2023/05/27 08:43:35;;;;;;;8.98;3.15;;;;;;;;;;4987804;28;20208;-70
2023/05/27 08:46:01;;;;;;;13.88;3.80;;;;;;;;;;4977298;28;20184;-70
2023/05/27 08:48:26;;;;;;;11.05;4.07;;;;;;;;;;4989454;28;20582;-70
2023/05/27 08:50:51;;;;;;;9.93;3.78;;;;;;;;;;4989965;28;20188;-70
2023/05/27 08:53:17;;;;;;;9.20;3.78;;;;;;;;;;4987610;28;20184;-70
2023/05/27 08:55:43;;;;;;;15.30;4.47;;;;;;;;;;4988679;28;20184;-70
2023/05/27 08:58:08;;;;;;;7.88;4.05;;;;;;;;;;4990768;28;20222;-71
2023/05/27 09:00:34;;;;;;;18.05;3.75;;;;;;;;;;4990713;28;20176;-70
2023/05/27 09:02:59;;;;;;;14.45;4.75;;;;;;;;;;4982820;28;20662;-70
2023/05/27 09:05:25;;;;;;;8.68;3.30;;;;;;;;;;5004507;28;20215;-69
2023/05/27 09:07:51;;;;;;;13.18;4.45;;;;;;;;;;4992412;28;20200;-69
2023/05/27 09:10:16;;;;;;;9.32;3.58;;;;;;;;;;4994831;28;20226;-70
2023/05/27 09:12:45;;;;;;;11.13;3.50;;;;;;;;;;4995091;28;20207;-69
2023/05/27 09:15:11;;;;;;;9.45;3.72;;;;;;;;;;4992967;28;20602;-70
2023/05/27 09:17:40;;;;;;;8.93;3.10;;;;;;;;;;4995061;28;20212;-70
2023/05/27 09:20:07;;;;;;;9.30;3.58;;;;;;;;;;4986070;28;20618;-70
2023/05/27 09:22:32;;;;;;;8.68;3.75;;;;;;;;;;5002066;28;20184;-70
2023/05/27 09:24:58;;;;;;;7.72;3.13;;;;;;;;;;4993808;28;20515;-70
2023/05/27 09:27:23;;;;;;;8.65;3.40;;;;;;;;;;4991184;28;20227;-70
2023/05/27 09:29:49;;;;;;;13.30;3.42;;;;;;;;;;4989341;28;20180;-70
2023/05/27 09:32:23;;;;;;;12.07;3.63;;;;;;;;;;4991681;28;20306;-70
2023/05/27 09:34:48;;;;;;;7.95;3.58;;;;;;;;;;4991172;28;20491;-70
2023/05/27 09:37:17;;;;;;;10.27;3.83;;;;;;;;;;4994470;28;20196;-70
2023/05/27 09:39:42;;;;;;;8.18;3.30;;;;;;;;;;4992840;28;20432;-70
2023/05/27 09:42:07;;;;;;;12.23;3.60;;;;;;;;;;4987469;28;20302;-70
2023/05/27 09:44:42;;;;;;;8.63;3.60;;;;;;;;;;4992533;28;20314;-70
2023/05/27 09:47:08;;;;;;;8.50;3.50;;;;;;;;;;4989846;28;20194;-72
2023/05/27 09:49:36;;;;;;;12.10;3.90;;;;;;;;;;4993657;28;20186;-70
2023/05/27 09:52:02;;;;;;;12.98;3.97;;;;;;;;;;4994157;28;20214;-70
2023/05/27 09:54:28;;;;;;;13.05;4.15;;;;;;;;;;4992648;28;20210;-70
2023/05/27 09:56:54;;;;;;;10.80;3.65;;;;;;;;;;4992806;28;20196;-70
2023/05/27 09:59:19;;;;;;;10.32;3.97;;;;;;;;;;4984878;28;20207;-71
2023/05/27 10:01:48;;;;;;;9.70;3.47;;;;;;;;;;4984081;28;20187;-71
2023/05/27 10:04:17;;;;;;;10.57;3.53;;;;;;;;;;4986392;28;20642;-71
2023/05/27 10:06:44;;;;;;;9.60;3.45;;;;;;;;;;4996617;28;20231;-70
2023/05/27 10:09:09;;;;;;;8.00;3.30;;;;;;;;;;4988085;28;20206;-70
2023/05/27 10:11:36;;;;;;;13.75;4.13;;;;;;;;;;4992595;28;20172;-70
2023/05/27 10:14:02;;;;;;;10.30;3.85;;;;;;;;;;4989946;28;20668;-70
2023/05/27 10:16:27;;;;;;;9.68;3.33;;;;;;;;;;4988138;28;20261;-70
2023/05/27 10:18:57;;;;;;;10.70;3.72;;;;;;;;;;4993036;28;20194;-70
2023/05/27 10:21:26;;;;;;;5.15;3.00;;;;;;;;;;4991966;28;20187;-70
2023/05/27 10:23:58;;;;;;;9.48;3.85;;;;;;;;;;4990089;28;20191;-70
2023/05/27 10:26:33;;;;;;;13.27;4.13;;;;;;;;;;4992731;28;20207;-70
2023/05/27 10:29:08;;;;;;;7.57;3.30;;;;;;;;;;4985860;28;20698;-70
2023/05/27 10:31:36;;;;;;;12.93;3.78;;;;;;;;;;4991339;28;20287;-72
2023/05/27 10:34:03;;;;;;;23.15;5.75;;;;;;;;;;4992060;28;20638;-71
2023/05/27 10:36:31;;;;;;;10.32;3.78;;;;;;;;;;4982531;28;20203;-70
2023/05/27 10:38:57;;;;;;;10.27;3.95;;;;;;;;;;4980069;28;20313;-70
2023/05/27 10:41:23;;;;;;;11.52;3.67;;;;;;;;;;4992902;28;20168;-70
2023/05/27 10:43:55;;;;;;;9.70;4.38;;;;;;;;;;4988638;28;20563;-70
2023/05/27 10:46:21;;;;;;;10.05;3.88;;;;;;;;;;4990963;28;20203;-70
2023/05/27 10:48:46;;;;;;;23.63;6.85;;;;;;;;;;5005879;28;20595;-70
2023/05/27 10:51:11;;;;;;;13.33;4.80;;;;;;;;;;4992481;28;20266;-69
2023/05/27 10:53:37;;;;;;;6.87;3.27;;;;;;;;;;4993071;28;20817;-70
2023/05/27 10:56:02;;;;;;;13.25;4.00;;;;;;;;;;4992656;28;20429;-70
2023/05/27 10:58:28;;;;;;;8.23;3.30;;;;;;;;;;4991549;28;20216;-70
2023/05/27 11:00:54;;;;;;;8.95;3.88;;;;;;;;;;4983644;28;20186;-70
2023/05/27 11:03:21;;;;;;;12.90;3.95;;;;;;;;;;4985397;28;20179;-71
2023/05/27 11:05:46;;;;;;;8.93;3.25;;;;;;;;;;4988651;28;20657;-72
2023/05/27 11:08:12;;;;;;;7.40;3.45;;;;;;;;;;4983236;28;20221;-71
2023/05/27 11:10:39;;;;;;;7.60;3.25;;;;;;;;;;4988895;28;20202;-72
2023/05/27 11:13:04;;;;;;;9.07;3.78;;;;;;;;;;4990419;28;20180;-70
2023/05/27 11:15:30;;;;;;;12.00;3.88;;;;;;;;;;4989724;28;20756;-70
2023/05/27 11:17:59;;;;;;;7.15;3.42;;;;;;;;;;4989823;28;20749;-70
2023/05/27 11:20:33;;;;;;;9.20;3.35;;;;;;;;;;4989390;28;20246;-70
2023/05/27 11:22:58;;;;;;;9.50;3.72;;;;;;;;;;4985633;28;20290;-70
2023/05/27 11:25:23;;;;;;;11.30;3.30;;;;;;;;;;4987077;28;20713;-70
2023/05/27 11:27:49;;;;;;;10.57;3.40;;;;;;;;;;4990008;28;20473;-70
2023/05/27 11:30:14;;;;;;;10.95;4.10;;;;;;;;;;4985377;28;20179;-70
2023/05/27 11:32:40;;;;;;;11.95;3.38;;;;;;;;;;4986884;28;20681;-70
2023/05/27 11:35:12;;;;;;;10.13;4.40;;;;;;;;;;4990499;28;20203;-70
2023/05/27 11:37:38;;;;;;;14.52;4.50;;;;;;;;;;4987532;28;20216;-70
2023/05/27 11:40:09;;;;;;;11.30;4.30;;;;;;;;;;4987627;28;20257;-69
2023/05/27 11:42:35;;;;;;;9.98;3.42;;;;;;;;;;4989988;28;20512;-70
2023/05/27 11:45:00;;;;;;;6.00;3.00;;;;;;;;;;4979501;28;20626;-70
2023/05/27 11:47:25;;;;;;;12.13;3.78;;;;;;;;;;4987305;28;20524;-69
2023/05/27 11:49:50;;;;;;;8.43;2.55;;;;;;;;;;4987235;28;20630;-70
2023/05/27 11:52:16;;;;;;;11.52;3.47;;;;;;;;;;4988518;28;20210;-70
2023/05/27 11:54:41;;;;;;;9.90;3.83;;;;;;;;;;4989121;28;20195;-70
2023/05/27 11:57:07;;;;;;;7.38;3.38;;;;;;;;;;4984111;28;20453;-70
2023/05/27 11:59:33;;;;;;;8.52;3.60;;;;;;;;;;4991626;28;20172;-70
2023/05/27 12:01:58;;;;;;;8.65;3.65;;;;;;;;;;4985141;28;20642;-70
2023/05/27 12:04:23;;;;;;;7.33;3.33;;;;;;;;;;4996461;28;20171;-70
2023/05/27 12:06:48;;;;;;;5.93;3.47;;;;;;;;;;4993107;28;20424;-70
2023/05/27 12:09:14;;;;;;;8.67;2.60;;;;;;;;;;4988562;28;20465;-69
2023/05/27 12:11:40;;;;;;;11.30;3.40;;;;;;;;;;4991696;28;20492;-69
2023/05/27 12:14:05;;;;;;;15.50;4.00;;;;;;;;;;4990749;28;20262;-70
2023/05/27 12:16:30;;;;;;;9.85;3.85;;;;;;;;;;4992134;28;20230;-70
2023/05/27 12:18:57;;;;;;;6.38;3.80;;;;;;;;;;4988330;28;20634;-69
2023/05/27 12:21:22;;;;;;;8.02;4.22;;;;;;;;;;5001235;28;20311;-70
2023/05/27 12:23:48;;;;;;;8.45;3.38;;;;;;;;;;4987771;28;20284;-69
2023/05/27 12:28:41;;;;;;;192.75;29.10;;;;;;;;;;4989742;28;20259;-69
2023/05/27 12:31:07;;;;;;;7.03;3.10;;;;;;;;;;4986117;28;20222;-68
2023/05/27 12:33:32;;;;;;;8.13;3.35;;;;;;;;;;4991514;28;20172;-68
2023/05/27 12:35:57;;;;;;;9.80;3.63;;;;;;;;;;4988286;28;20299;-69
2023/05/27 12:38:23;;;;;;;7.93;3.13;;;;;;;;;;4987198;28;20515;-68
2023/05/27 12:40:48;;;;;;;8.40;4.28;;;;;;;;;;4988175;28;20184;-69
2023/05/27 12:43:14;;;;;;;6.20;2.90;;;;;;;;;;4990193;28;20183;-69
2023/05/27 12:45:39;;;;;;;10.57;3.78;;;;;;;;;;4990045;28;20270;-69
2023/05/27 12:48:04;;;;;;;8.27;3.30;;;;;;;;;;4990144;28;20754;-68
2023/05/27 12:50:30;;;;;;;9.35;3.75;;;;;;;;;;4992164;28;20192;-68
2023/05/27 12:52:55;;;;;;;6.72;3.50;;;;;;;;;;4995978;28;20270;-68
2023/05/27 12:55:24;;;;;;;7.70;3.07;;;;;;;;;;4996079;28;20194;-68
2023/05/27 12:57:49;;;;;;;8.95;3.40;;;;;;;;;;4994183;28;20429;-68
2023/05/27 13:00:15;;;;;;;9.45;3.03;;;;;;;;;;4992581;28;20183;-69
2023/05/27 13:02:41;;;;;;;7.75;4.13;;;;;;;;;;4989976;28;20233;-69
2023/05/27 13:05:07;;;;;;;11.20;3.35;;;;;;;;;;4989637;28;20533;-68
2023/05/27 13:07:35;;;;;;;6.28;3.47;;;;;;;;;;4995489;28;20214;-69
2023/05/27 13:10:01;;;;;;;8.77;3.45;;;;;;;;;;4987933;28;20175;-68
2023/05/27 13:12:27;;;;;;;8.40;3.17;;;;;;;;;;4989394;28;20188;-69
2023/05/27 13:14:52;;;;;;;11.38;3.92;;;;;;;;;;4993395;28;20188;-69
2023/05/27 13:17:18;;;;;;;6.82;2.92;;;;;;;;;;4994800;28;20191;-68
2023/05/27 13:19:43;;;;;;;11.17;4.20;;;;;;;;;;4992732;28;20183;-68
2023/05/27 13:22:08;;;;;;;4.88;2.50;;;;;;;;;;4994030;28;20432;-68
2023/05/27 13:24:34;;;;;;;8.50;3.38;;;;;;;;;;4993389;28;20263;-68
2023/05/27 13:27:00;;;;;;;8.70;3.58;;;;;;;;;;4987173;28;20210;-68
2023/05/27 13:29:25;;;;;;;9.90;3.10;;;;;;;;;;4992070;28;20207;-68
2023/05/27 13:31:50;;;;;;;6.72;2.80;;;;;;;;;;4995382;28;20565;-68
2023/05/27 13:34:16;;;;;;;8.47;3.70;;;;;;;;;;4994403;28;20187;-69
2023/05/27 13:36:41;;;;;;;10.25;3.50;;;;;;;;;;4993315;28;20460;-68
2023/05/27 13:39:06;;;;;;;9.32;3.55;;;;;;;;;;4992440;28;20184;-68
2023/05/27 13:41:31;;;;;;;6.03;4.00;;;;;;;;;;4993287;28;20543;-68
2023/05/27 13:43:57;;;;;;;6.03;2.43;;;;;;;;;;4991968;28;20183;-68
2023/05/27 13:46:22;;;;;;;6.50;3.33;;;;;;;;;;4992639;28;20270;-68
2023/05/27 13:48:47;;;;;;;7.03;3.07;;;;;;;;;;4994982;28;20203;-68
2023/05/27 13:51:13;;;;;;;11.07;3.63;;;;;;;;;;4988967;28;20791;-68
2023/05/27 13:53:38;;;;;;;7.73;3.37;;;;;;;;;;4993179;28;20188;-69
2023/05/27 13:56:03;;;;;;;9.03;3.43;;;;;;;;;;4988030;28;20445;-69
2023/05/27 13:58:29;;;;;;;7.80;2.83;;;;;;;;;;4981812;28;20475;-70
2023/05/27 14:00:54;;;;;;;8.98;3.17;;;;;;;;;;4983896;28;20484;-68
2023/05/27 14:03:20;;;;;;;7.07;3.20;;;;;;;;;;4993307;28;20254;-69
2023/05/27 14:05:45;;;;;;;6.65;3.13;;;;;;;;;;4984443;28;20187;-68
2023/05/27 14:08:10;;;;;;;14.90;3.30;;;;;;;;;;4989774;28;20673;-68
2023/05/27 14:10:35;;;;;;;6.07;3.23;;;;;;;;;;4990041;28;20603;-69
2023/05/27 14:13:02;;;;;;;8.53;3.20;;;;;;;;;;4984589;28;21055;-68
2023/05/27 14:15:28;;;;;;;8.48;3.20;;;;;;;;;;4989661;28;20424;-68
2023/05/27 14:17:54;;;;;;;6.07;2.85;;;;;;;;;;4988002;28;20259;-68
2023/05/27 14:20:19;;;;;;;9.45;3.55;;;;;;;;;;4990428;28;20187;-69
2023/05/27 14:22:45;;;;;;;6.80;3.03;;;;;;;;;;4988656;28;20279;-68
2023/05/27 14:25:10;;;;;;;6.50;3.15;;;;;;;;;;4982684;28;20191;-68
2023/05/27 14:27:35;;;;;;;6.90;3.15;;;;;;;;;;4985136;28;20821;-68
2023/05/27 14:30:00;;;;;;;5.82;3.38;;;;;;;;;;4990467;28;20196;-68
2023/05/27 14:32:25;;;;;;;5.43;2.67;;;;;;;;;;4987228;28;20188;-68